createdAt,value
2023-04-24T00:00:35.139Z,11.40
2023-04-24T00:03:23.243Z,11.40
2023-04-24T00:05:52.163Z,11.50
2023-04-24T00:08:19.735Z,11.50
2023-04-24T00:10:47.962Z,11.50
2023-04-24T00:13:15.454Z,11.50
2023-04-24T00:15:42.920Z,11.60
2023-04-24T00:18:10.392Z,11.60
2023-04-24T00:20:38.525Z,11.60
2023-04-24T00:23:05.925Z,11.60
2023-04-24T00:25:33.631Z,11.70
2023-04-24T00:28:01.258Z,11.70
2023-04-24T00:30:30.305Z,11.80
2023-04-24T00:32:58.583Z,11.80
2023-04-24T00:35:27.021Z,11.80
2023-04-24T00:37:54.485Z,11.90
2023-04-24T00:40:22.244Z,11.90
2023-04-24T00:42:50.033Z,11.90
2023-04-24T00:45:18.141Z,11.90
2023-04-24T00:47:47.845Z,11.90
2023-04-24T00:50:16.117Z,11.90
2023-04-24T00:52:43.496Z,11.90
2023-04-24T00:55:13.213Z,11.90
2023-04-24T00:57:40.774Z,11.80
2023-04-24T01:00:11.462Z,11.90
2023-04-24T01:02:47.135Z,11.80
2023-04-24T01:05:16.238Z,11.80
2023-04-24T01:07:46.931Z,11.80
2023-04-24T01:10:16.118Z,11.80
2023-04-24T01:12:43.355Z,11.90
2023-04-24T01:15:13.920Z,11.90
2023-04-24T01:17:43.546Z,11.90
2023-04-24T01:20:11.795Z,11.90
2023-04-24T01:22:39.330Z,11.90
2023-04-24T01:25:07.465Z,11.90
2023-04-24T01:27:34.876Z,12.00
2023-04-24T01:30:02.925Z,12.00
2023-04-24T01:32:32.438Z,12.00
2023-04-24T01:35:00.234Z,12.10
2023-04-24T01:37:27.934Z,12.10
2023-04-24T01:39:55.524Z,12.20
2023-04-24T01:42:23.331Z,12.20
2023-04-24T01:44:52.236Z,12.20
2023-04-24T01:47:19.790Z,12.20
2023-04-24T01:49:49.009Z,12.20
2023-04-24T01:52:17.354Z,12.20
2023-04-24T01:54:45.897Z,12.20
2023-04-24T01:57:15.791Z,12.20
2023-04-24T01:59:45.201Z,12.20
2023-04-24T02:02:14.657Z,12.20
2023-04-24T02:04:42.285Z,12.10
2023-04-24T02:07:09.732Z,12.10
2023-04-24T02:09:37.400Z,12.00
2023-04-24T02:12:04.909Z,12.00
2023-04-24T02:14:32.653Z,11.90
2023-04-24T02:16:59.892Z,11.90
2023-04-24T02:19:27.875Z,11.90
2023-04-24T02:21:55.078Z,11.90
2023-04-24T02:24:22.816Z,11.90
2023-04-24T02:26:50.242Z,11.80
2023-04-24T02:29:17.752Z,11.80
2023-04-24T02:31:50.485Z,11.80
2023-04-24T02:34:18.445Z,11.80
2023-04-24T02:36:45.712Z,11.80
2023-04-24T02:39:14.514Z,11.80
2023-04-24T02:41:41.908Z,11.80
2023-04-24T02:44:10.317Z,11.80
2023-04-24T02:46:37.821Z,11.90
2023-04-24T02:49:05.444Z,11.90
2023-04-24T02:51:32.908Z,11.90
2023-04-24T02:54:00.803Z,11.90
2023-04-24T02:56:28.396Z,12.00
2023-04-24T02:58:57.973Z,12.00
2023-04-24T03:01:26.298Z,12.00
2023-04-24T03:03:54.020Z,12.10
2023-04-24T03:06:22.593Z,12.00
2023-04-24T03:08:50.269Z,12.00
2023-04-24T03:11:17.624Z,12.00
2023-04-24T03:13:45.516Z,12.00
2023-04-24T03:16:13.168Z,12.00
2023-04-24T03:18:40.743Z,12.00
2023-04-24T03:21:09.538Z,12.00
2023-04-24T03:23:37.389Z,12.00
2023-04-24T03:26:04.950Z,12.00
2023-04-24T03:28:34.026Z,12.00
2023-04-24T03:31:05.018Z,12.00
2023-04-24T03:33:37.208Z,12.00
2023-04-24T03:36:06.111Z,12.00
2023-04-24T03:38:40.652Z,11.90
2023-04-24T03:41:31.231Z,12.00
2023-04-24T03:44:11.032Z,12.00
2023-04-24T03:46:39.522Z,12.00
2023-04-24T03:49:07.982Z,12.00
2023-04-24T03:51:38.695Z,11.90
2023-04-24T03:54:27.487Z,11.90
2023-04-24T03:56:55.100Z,11.90
2023-04-24T03:59:23.291Z,11.90
2023-04-24T04:02:03.072Z,11.90
2023-04-24T04:04:30.826Z,11.90
2023-04-24T04:07:02.130Z,12.00
2023-04-24T04:09:30.329Z,12.10
2023-04-24T04:11:57.794Z,12.10
2023-04-24T04:14:25.589Z,12.30
2023-04-24T04:16:54.885Z,12.40
2023-04-24T04:19:22.641Z,12.50
2023-04-24T04:21:54.090Z,12.60
2023-04-24T04:24:29.617Z,12.70
2023-04-24T04:26:59.251Z,12.90
2023-04-24T04:29:32.390Z,13.00
2023-04-24T04:32:00.584Z,13.10
2023-04-24T04:34:28.795Z,13.30
2023-04-24T04:36:57.483Z,13.40
2023-04-24T04:39:38.145Z,13.60
2023-04-24T04:42:09.229Z,13.80
2023-04-24T04:44:42.518Z,14.00
2023-04-24T04:47:14.335Z,14.10
2023-04-24T04:49:44.385Z,14.30
2023-04-24T04:52:21.096Z,14.40
2023-04-24T04:54:53.107Z,14.50
2023-04-24T04:57:21.573Z,14.50
2023-04-24T04:59:49.972Z,14.60
2023-04-24T05:02:27.510Z,14.60
2023-04-24T05:04:55.761Z,14.70
2023-04-24T05:07:23.228Z,14.70
2023-04-24T05:09:53.623Z,14.60
2023-04-24T05:12:21.141Z,14.60
2023-04-24T05:14:53.274Z,14.60
2023-04-24T05:17:20.864Z,14.70
2023-04-24T05:19:49.270Z,14.70
2023-04-24T05:22:19.525Z,14.70
2023-04-24T05:24:52.021Z,14.70
2023-04-24T05:27:33.905Z,14.80
2023-04-24T05:30:04.459Z,14.80
2023-04-24T05:32:32.040Z,14.90
2023-04-24T05:35:01.120Z,14.90
2023-04-24T05:37:28.752Z,14.90
2023-04-24T05:39:56.770Z,15.00
2023-04-24T05:42:24.417Z,15.10
2023-04-24T05:44:53.688Z,15.10
2023-04-24T05:47:23.020Z,15.30
2023-04-24T05:49:52.022Z,15.30
2023-04-24T05:52:19.194Z,15.40
2023-04-24T05:54:47.302Z,15.50
2023-04-24T05:57:19.107Z,15.60
2023-04-24T05:59:55.577Z,15.80
2023-04-24T06:02:23.956Z,15.80
2023-04-24T06:04:54.081Z,15.90
2023-04-24T06:07:22.283Z,16.00
2023-04-24T06:09:51.280Z,16.10
2023-04-24T06:12:18.727Z,16.20
2023-04-24T06:15:01.463Z,16.30
2023-04-24T06:17:47.751Z,16.40
2023-04-24T06:20:17.353Z,16.50
2023-04-24T06:22:44.726Z,16.60
2023-04-24T06:25:12.814Z,16.70
2023-04-24T06:27:40.804Z,16.80
2023-04-24T06:30:10.468Z,16.90
2023-04-24T06:32:37.766Z,17.00
2023-04-24T06:35:05.830Z,17.20
2023-04-24T06:37:33.302Z,17.40
2023-04-24T06:40:00.860Z,17.50
2023-04-24T06:42:28.203Z,17.60
2023-04-24T06:44:56.963Z,17.70
2023-04-24T06:47:24.275Z,17.80
2023-04-24T06:49:53.555Z,17.90
2023-04-24T06:52:20.913Z,17.90
2023-04-24T06:54:48.890Z,18.00
2023-04-24T06:57:17.280Z,18.10
2023-04-24T06:59:45.238Z,18.10
2023-04-24T07:02:12.697Z,18.10
2023-04-24T07:04:41.513Z,18.10
2023-04-24T07:07:10.594Z,18.10
2023-04-24T07:09:39.813Z,18.20
2023-04-24T07:12:08.897Z,18.20
2023-04-24T07:14:36.812Z,18.30
2023-04-24T07:17:07.342Z,18.30
2023-04-24T07:19:36.736Z,18.30
2023-04-24T07:22:04.676Z,18.30
2023-04-24T07:24:35.761Z,18.30
2023-04-24T07:27:03.195Z,18.20
2023-04-24T07:29:30.967Z,18.20
2023-04-24T07:31:58.152Z,18.30
2023-04-24T07:34:25.884Z,18.30
2023-04-24T07:36:53.472Z,18.30
2023-04-24T07:39:21.238Z,18.40
2023-04-24T13:54:27.196Z,18.40
2023-04-24T13:56:54.921Z,24.90
2023-04-24T13:59:22.803Z,25.10
2023-04-24T14:16:38.373Z,25.20
2023-04-24T14:19:07.257Z,24.70
2023-04-24T14:21:34.997Z,24.90
2023-04-24T14:24:02.772Z,24.70
2023-04-24T14:46:33.896Z,24.80
2023-04-24T14:49:01.502Z,24.40
2023-04-24T14:51:29.246Z,23.80
2023-04-24T14:53:57.532Z,25.10
2023-04-24T14:58:55.858Z,26.60
2023-04-24T15:06:21.784Z,26.90
2023-04-24T15:08:50.729Z,27.80
2023-04-24T15:11:18.918Z,28.40
2023-04-24T15:13:47.022Z,30.00
2023-04-24T15:16:15.592Z,27.80
2023-04-24T15:18:43.568Z,27.80
2023-04-24T15:21:10.955Z,28.00
2023-04-24T15:23:38.430Z,28.10
2023-04-24T15:40:57.780Z,26.60
2023-04-24T15:43:26.178Z,22.00
2023-04-24T15:45:53.628Z,21.90
2023-04-24T15:48:21.569Z,21.80
2023-04-24T15:50:48.980Z,21.30
2023-04-24T15:53:22.510Z,20.40
2023-04-24T15:55:53.573Z,19.70
2023-04-24T15:58:21.773Z,19.40
2023-04-24T16:00:49.906Z,19.40
2023-04-24T16:03:18.116Z,19.20
2023-04-24T16:05:46.034Z,19.10
2023-04-24T16:08:15.608Z,19.20
2023-04-24T16:10:43.469Z,19.00
2023-04-24T16:13:11.197Z,18.80
2023-04-24T16:15:40.167Z,18.70
2023-04-24T16:18:07.997Z,18.70
2023-04-24T16:20:36.132Z,18.50
2023-04-24T16:23:03.851Z,18.40
2023-04-24T16:25:31.962Z,18.30
2023-04-24T16:28:00.919Z,18.20
2023-04-24T16:30:29.844Z,18.00
2023-04-24T16:32:57.831Z,17.80
2023-04-24T16:35:25.342Z,17.80
2023-04-24T16:37:55.449Z,17.60
2023-04-24T16:40:22.916Z,17.50
2023-04-24T16:42:51.524Z,17.40
2023-04-24T16:45:19.021Z,17.20
2023-04-24T16:47:46.855Z,17.20
2023-04-24T16:50:14.512Z,17.20
2023-04-24T16:52:43.532Z,17.10
2023-04-24T16:55:10.895Z,16.90
2023-04-24T16:57:38.830Z,16.80
2023-04-24T17:00:06.801Z,16.70
2023-04-24T17:02:34.897Z,16.70
2023-04-24T17:05:02.592Z,16.60
2023-04-24T17:07:31.925Z,16.60
2023-04-24T17:10:00.405Z,16.50
2023-04-24T17:12:28.310Z,16.60
2023-04-24T17:14:55.918Z,16.50
2023-04-24T17:17:25.530Z,16.50
2023-04-24T17:19:52.925Z,16.40
2023-04-24T17:22:20.384Z,16.30
2023-04-24T17:24:48.837Z,16.20
2023-04-24T17:27:16.586Z,16.10
2023-04-24T17:29:44.972Z,16.00
2023-04-24T17:32:13.032Z,15.90
2023-04-24T17:34:41.567Z,15.80
2023-04-24T17:37:09.554Z,15.70
2023-04-24T17:39:37.469Z,15.60
2023-04-24T17:42:06.298Z,15.50
2023-04-24T17:44:34.057Z,15.40
2023-04-24T17:47:02.170Z,15.30
2023-04-24T17:49:29.381Z,15.20
2023-04-24T17:51:57.001Z,15.20
2023-04-24T17:54:24.566Z,15.10
2023-04-24T17:56:55.016Z,15.10
2023-04-24T17:59:23.976Z,15.00
2023-04-24T18:01:53.371Z,14.90
2023-04-24T18:04:21.170Z,14.90
2023-04-24T18:06:51.387Z,14.80
2023-04-24T18:09:21.092Z,14.80
2023-04-24T18:11:49.887Z,14.80
2023-04-24T18:14:17.773Z,14.70
2023-04-24T18:16:46.699Z,14.70
2023-04-24T18:19:14.491Z,14.70
2023-04-24T18:21:42.143Z,14.60
2023-04-24T18:24:10.806Z,14.60
2023-04-24T18:26:38.962Z,14.50
2023-04-24T18:29:06.997Z,14.50
2023-04-24T18:31:35.084Z,14.40
2023-04-24T18:34:02.363Z,14.40
2023-04-24T18:36:30.793Z,14.40
2023-04-24T18:38:58.383Z,14.40
2023-04-24T18:41:26.379Z,14.40
2023-04-24T18:43:53.704Z,14.30
2023-04-24T18:46:21.579Z,14.30
2023-04-24T18:48:49.193Z,14.30
2023-04-24T18:51:16.946Z,14.30
2023-04-24T18:53:44.765Z,14.40
2023-04-24T18:56:13.084Z,14.30
2023-04-24T18:58:44.310Z,14.30
2023-04-24T19:01:12.397Z,14.30
2023-04-24T19:03:40.305Z,14.30
2023-04-24T19:06:09.085Z,14.30
2023-04-24T19:08:38.609Z,14.30
2023-04-24T19:11:06.368Z,14.30
2023-04-24T19:13:34.030Z,14.30
2023-04-24T19:16:02.619Z,14.40
2023-04-24T19:18:30.008Z,14.40
2023-04-24T19:20:59.829Z,14.40
2023-04-24T19:23:27.200Z,14.40
2023-04-24T19:25:54.796Z,14.40
2023-04-24T19:28:22.130Z,14.50
2023-04-24T19:30:49.786Z,14.50
2023-04-24T19:33:17.253Z,14.50
2023-04-24T19:35:44.910Z,14.50
2023-04-24T19:38:12.747Z,14.40
2023-04-24T19:40:40.797Z,14.40
2023-04-24T19:43:08.429Z,14.30
2023-04-24T19:45:37.548Z,14.30
2023-04-24T19:48:05.986Z,14.30
2023-04-24T19:50:34.867Z,14.30
2023-04-24T19:53:02.152Z,14.40
2023-04-24T19:55:30.312Z,14.40
2023-04-24T19:57:57.935Z,14.30
2023-04-24T20:00:25.605Z,14.40
2023-04-24T20:02:55.578Z,14.40
2023-04-24T20:05:23.564Z,14.40
2023-04-24T20:07:52.259Z,14.30
2023-04-24T20:10:20.455Z,14.40
2023-04-24T20:12:48.231Z,14.40
2023-04-24T20:15:16.022Z,14.30
2023-04-24T20:17:43.435Z,14.30
2023-04-24T20:20:12.689Z,14.20
2023-04-24T20:22:40.365Z,14.00
2023-04-24T20:25:13.015Z,13.60
2023-04-24T20:27:41.334Z,13.20
2023-04-24T20:30:13.358Z,12.90
2023-04-24T20:32:44.711Z,12.80
2023-04-24T20:35:12.432Z,12.80
2023-04-24T20:37:40.504Z,12.80
2023-04-24T20:40:09.987Z,12.80
2023-04-24T20:42:40.130Z,12.80
2023-04-24T20:45:08.339Z,12.80
2023-04-24T20:47:37.002Z,12.80
2023-04-24T20:50:06.320Z,12.80
2023-04-24T20:52:34.124Z,12.80
2023-04-24T20:55:03.604Z,12.80
2023-04-24T20:57:31.508Z,12.80
2023-04-24T20:59:59.098Z,12.90
2023-04-24T21:02:27.926Z,12.80
2023-04-24T21:04:55.630Z,12.80
2023-04-24T21:07:22.909Z,12.80
2023-04-24T21:09:51.257Z,12.70
2023-04-24T21:12:18.599Z,12.60
2023-04-24T21:14:46.228Z,12.50
2023-04-24T21:17:13.953Z,12.40
2023-04-24T21:19:43.118Z,12.40
2023-04-24T21:22:10.481Z,12.30
2023-04-24T21:24:38.264Z,12.30
2023-04-24T21:27:06.283Z,12.40
2023-04-24T21:29:34.502Z,12.30
2023-04-24T21:32:03.612Z,12.30
2023-04-24T21:34:31.378Z,12.30
2023-04-24T21:36:58.901Z,12.20
2023-04-24T21:39:27.648Z,12.30
2023-04-24T21:41:56.330Z,12.30
2023-04-24T21:44:24.765Z,12.20
2023-04-24T21:46:52.846Z,12.20
2023-04-24T21:49:22.034Z,12.20
2023-04-24T21:51:49.629Z,12.20
2023-04-24T21:54:17.178Z,12.10
2023-04-24T21:56:45.016Z,12.10
2023-04-24T21:59:13.246Z,12.00
2023-04-24T22:01:41.169Z,12.10
2023-04-24T22:04:10.293Z,12.10
2023-04-24T22:06:38.207Z,12.10
2023-04-24T22:09:07.648Z,12.10
2023-04-24T22:11:36.638Z,12.10
2023-04-24T22:14:04.213Z,12.10
2023-04-24T22:16:31.536Z,12.20
2023-04-24T22:18:59.327Z,12.10
2023-04-24T22:21:27.761Z,12.10
2023-04-24T22:23:55.578Z,12.10
2023-04-24T22:26:22.736Z,12.10
2023-04-24T22:28:53.246Z,12.10
2023-04-24T22:31:20.620Z,12.10
2023-04-24T22:33:48.744Z,12.10
2023-04-24T22:36:16.191Z,12.10
2023-04-24T22:38:44.168Z,12.10
2023-04-24T22:41:12.952Z,12.10
2023-04-24T22:43:40.865Z,12.10
2023-04-24T22:46:09.149Z,12.10
2023-04-24T22:48:36.877Z,12.10
2023-04-24T22:51:04.487Z,12.10
2023-04-24T22:53:32.366Z,12.10
2023-04-24T22:56:00.509Z,12.20
2023-04-24T22:58:28.391Z,12.20
2023-04-24T23:00:55.674Z,12.10
2023-04-24T23:03:23.911Z,12.00
2023-04-24T23:05:51.431Z,12.00
2023-04-24T23:08:19.040Z,12.10
2023-04-24T23:10:46.474Z,12.10
2023-04-24T23:13:13.938Z,12.10
2023-04-24T23:15:42.095Z,12.10
2023-04-24T23:18:09.692Z,12.00
2023-04-24T23:20:38.569Z,12.10
2023-04-24T23:23:06.383Z,12.10
2023-04-24T23:25:34.741Z,12.00
2023-04-24T23:28:02.274Z,11.90
2023-04-24T23:30:29.910Z,11.90
2023-04-24T23:32:57.542Z,11.80
2023-04-24T23:35:25.919Z,11.80
2023-04-24T23:37:54.633Z,11.70
2023-04-24T23:40:22.316Z,11.70
2023-04-24T23:43:03.310Z,11.70
2023-04-24T23:45:34.410Z,11.70
2023-04-24T23:48:02.236Z,11.70
2023-04-24T23:50:29.865Z,11.70
2023-04-24T23:52:57.639Z,11.70
2023-04-24T23:55:25.118Z,11.60
2023-04-24T23:57:52.616Z,11.70
